createdAt,value
2024-02-05T00:00:50.706Z,27.77
2024-02-05T00:03:18.060Z,27.90
2024-02-05T00:05:46.206Z,25.67
2024-02-05T00:08:13.705Z,28.35
2024-02-05T00:10:41.264Z,26.65
2024-02-05T00:13:08.505Z,26.40
2024-02-05T00:15:35.752Z,24.88
2024-02-05T00:18:02.995Z,29.02
2024-02-05T00:20:30.230Z,27.42
2024-02-05T00:22:57.491Z,27.25
2024-02-05T00:25:24.899Z,25.73
2024-02-05T00:27:52.274Z,25.67
2024-02-05T00:30:20.425Z,24.98
2024-02-05T00:32:47.602Z,29.75
2024-02-05T00:35:14.985Z,26.15
2024-02-05T00:37:43.216Z,25.85
2024-02-05T00:40:11.008Z,25.63
2024-02-05T00:42:38.569Z,26.17
2024-02-05T00:45:06.497Z,24.73
2024-02-05T00:47:33.669Z,25.42
2024-02-05T00:50:01.168Z,25.08
2024-02-05T00:52:30.964Z,26.27
2024-02-05T00:54:59.498Z,26.70
2024-02-05T00:57:28.014Z,25.13
2024-02-05T00:59:55.496Z,25.35
2024-02-05T01:02:22.873Z,30.45
2024-02-05T01:04:50.635Z,27.25
2024-02-05T01:07:19.296Z,26.98
2024-02-05T01:09:46.673Z,27.05
2024-02-05T01:12:14.001Z,26.52
2024-02-05T01:14:41.242Z,26.73
2024-02-05T01:17:09.958Z,25.08
2024-02-05T01:19:37.481Z,26.25
2024-02-05T01:22:05.651Z,26.30
2024-02-05T01:24:33.022Z,27.48
2024-02-05T01:27:00.323Z,25.52
2024-02-05T01:29:28.420Z,26.40
2024-02-05T01:31:55.719Z,26.40
2024-02-05T01:34:22.913Z,27.42
2024-02-05T01:36:50.327Z,27.05
2024-02-05T01:39:19.529Z,34.15
2024-02-05T01:41:47.038Z,30.83
2024-02-05T01:44:14.449Z,28.98
2024-02-05T01:46:41.769Z,26.35
2024-02-05T01:49:12.551Z,26.58
2024-02-05T01:51:44.915Z,25.77
2024-02-05T01:54:16.350Z,27.52
2024-02-05T01:56:45.523Z,28.27
2024-02-05T01:59:14.429Z,27.92
2024-02-05T02:01:43.505Z,26.77
2024-02-05T02:04:11.036Z,26.35
2024-02-05T02:06:40.390Z,27.35
2024-02-05T02:09:12.192Z,26.42
2024-02-05T02:11:41.509Z,27.55
2024-02-05T02:14:09.822Z,33.53
2024-02-05T02:16:37.837Z,29.02
2024-02-05T02:19:21.826Z,27.88
2024-02-05T02:22:20.431Z,27.20
2024-02-05T02:24:48.989Z,27.10
2024-02-05T02:27:17.630Z,26.52
2024-02-05T02:29:45.520Z,27.75
2024-02-05T02:32:36.984Z,27.65
2024-02-05T02:35:13.528Z,32.65
2024-02-05T02:37:49.166Z,30.27
2024-02-05T02:40:19.697Z,29.55
2024-02-05T02:42:50.199Z,28.35
2024-02-05T02:45:18.363Z,27.15
2024-02-05T02:47:45.950Z,27.60
2024-02-05T02:50:13.158Z,26.25
2024-02-05T02:52:40.479Z,31.35
2024-02-05T02:55:09.232Z,35.38
2024-02-05T02:57:36.451Z,32.33
2024-02-05T03:00:06.898Z,33.72
2024-02-05T03:02:34.807Z,30.77
2024-02-05T03:05:03.629Z,27.17
2024-02-05T03:07:36.203Z,26.58
2024-02-05T03:10:07.140Z,39.38
2024-02-05T03:12:35.807Z,33.67
2024-02-05T03:15:03.596Z,30.15
2024-02-05T03:17:34.886Z,31.38
2024-02-05T03:20:02.494Z,33.33
2024-02-05T03:22:32.853Z,30.58
2024-02-05T03:25:00.553Z,30.42
2024-02-05T03:27:27.957Z,27.23
2024-02-05T03:29:55.630Z,28.65
2024-02-05T03:32:22.846Z,27.52
2024-02-05T03:34:50.212Z,26.80
2024-02-05T03:37:17.663Z,25.52
2024-02-05T03:39:44.940Z,25.75
2024-02-05T03:42:12.217Z,25.95
2024-02-05T03:44:39.402Z,27.55
2024-02-05T03:47:07.376Z,28.02
2024-02-05T03:49:35.203Z,28.48
2024-02-05T03:52:02.497Z,28.33
2024-02-05T03:54:29.771Z,29.33
2024-02-05T03:56:57.114Z,28.08
2024-02-05T03:59:24.243Z,33.30
2024-02-05T04:01:52.378Z,37.53
2024-02-05T04:04:20.397Z,33.33
2024-02-05T04:06:47.789Z,33.38
2024-02-05T04:09:14.980Z,34.00
2024-02-05T04:11:42.630Z,33.08
2024-02-05T04:14:11.454Z,28.33
2024-02-05T04:16:39.204Z,34.55
2024-02-05T04:19:07.020Z,29.35
2024-02-05T04:21:34.361Z,28.38
2024-02-05T04:24:01.761Z,30.40
2024-02-05T04:26:28.954Z,27.38
2024-02-05T04:28:56.791Z,27.27
2024-02-05T04:31:24.113Z,30.23
2024-02-05T04:33:51.597Z,27.30
2024-02-05T04:36:19.977Z,28.27
2024-02-05T04:38:47.956Z,28.33
2024-02-05T04:41:15.338Z,30.42
2024-02-05T04:43:42.642Z,32.58
2024-02-05T04:46:11.571Z,26.13
2024-02-05T04:48:40.095Z,26.45
2024-02-05T04:51:13.124Z,28.17
2024-02-05T04:53:43.979Z,29.80
2024-02-05T04:56:11.345Z,29.77
2024-02-05T04:58:38.715Z,28.80
2024-02-05T05:01:09.061Z,28.42
2024-02-05T05:03:38.745Z,37.03
2024-02-05T05:06:06.453Z,33.10
2024-02-05T05:08:34.878Z,30.95
2024-02-05T05:11:02.303Z,27.80
2024-02-05T05:13:31.998Z,28.70
2024-02-05T05:16:01.740Z,29.08
2024-02-05T05:18:29.121Z,28.35
2024-02-05T05:20:56.708Z,31.83
2024-02-05T05:23:24.780Z,30.40
2024-02-05T05:25:51.914Z,30.60
2024-02-05T05:28:19.281Z,29.27
2024-02-05T05:30:47.895Z,29.67
2024-02-05T05:33:15.175Z,31.33
2024-02-05T05:35:42.468Z,31.30
2024-02-05T05:38:09.763Z,30.58
2024-02-05T05:40:37.127Z,29.48
2024-02-05T05:43:04.582Z,28.88
2024-02-05T05:45:31.753Z,36.00
2024-02-05T05:47:59.526Z,38.63
2024-02-05T05:50:27.807Z,30.85
2024-02-05T05:52:55.518Z,32.58
2024-02-05T05:55:22.830Z,29.33
2024-02-05T05:57:53.287Z,29.35
2024-02-05T06:00:23.198Z,29.25
2024-02-05T06:02:50.684Z,29.45
2024-02-05T06:05:17.846Z,28.92
2024-02-05T06:07:46.275Z,29.90
2024-02-05T06:10:13.985Z,31.10
2024-02-05T06:12:45.255Z,31.35
2024-02-05T06:15:15.616Z,31.70
2024-02-05T06:17:43.167Z,31.98
2024-02-05T06:20:14.130Z,31.60
2024-02-05T06:22:43.575Z,30.58
2024-02-05T06:25:11.154Z,28.38
2024-02-05T06:27:38.557Z,28.60
2024-02-05T06:30:07.623Z,35.67
2024-02-05T06:32:34.981Z,39.75
2024-02-05T06:35:03.397Z,46.45
2024-02-05T06:37:31.618Z,35.72
2024-02-05T06:39:58.862Z,35.42
2024-02-05T06:42:26.038Z,38.58
2024-02-05T06:44:53.417Z,38.63
2024-02-05T06:47:20.773Z,39.97
2024-02-05T06:49:48.561Z,36.90
2024-02-05T06:52:17.030Z,38.40
2024-02-05T06:54:44.378Z,38.15
2024-02-05T06:57:11.932Z,40.67
2024-02-05T06:59:39.249Z,38.55
2024-02-05T07:04:38.102Z,41.00
2024-02-05T07:07:05.759Z,39.55
2024-02-05T07:09:34.177Z,39.25
2024-02-05T07:12:01.358Z,40.47
2024-02-05T07:14:28.716Z,32.90
2024-02-05T07:16:56.091Z,32.47
2024-02-05T07:19:25.180Z,32.85
2024-02-05T07:21:53.910Z,32.35
2024-02-05T07:24:21.648Z,30.02
2024-02-05T07:26:48.917Z,27.88
2024-02-05T07:29:16.088Z,23.63
2024-02-05T07:31:44.482Z,25.67
2024-02-05T07:34:12.830Z,24.95
2024-02-05T07:36:40.201Z,24.13
2024-02-05T07:39:09.451Z,24.98
2024-02-05T07:41:36.758Z,26.05
2024-02-05T07:44:04.803Z,25.02
2024-02-05T07:46:32.707Z,25.45
2024-02-05T07:48:59.948Z,25.17
2024-02-05T07:51:27.270Z,25.27
2024-02-05T07:53:54.598Z,27.48
2024-02-05T07:56:22.218Z,30.23
2024-02-05T07:58:51.035Z,30.25
2024-02-05T08:01:18.375Z,29.80
2024-02-05T08:03:45.881Z,31.55
2024-02-05T08:06:20.175Z,32.50
2024-02-05T08:08:47.538Z,37.65
2024-02-05T08:11:14.820Z,33.40
2024-02-05T08:13:42.235Z,34.30
2024-02-05T08:16:09.561Z,34.50
2024-02-05T08:18:37.268Z,34.55
2024-02-05T08:21:07.894Z,30.92
2024-02-05T08:23:36.727Z,29.48
2024-02-05T08:26:04.317Z,30.85
2024-02-05T08:28:32.076Z,33.80
2024-02-05T08:30:59.731Z,35.75
2024-02-05T08:33:27.054Z,34.58
2024-02-05T08:35:55.106Z,35.72
2024-02-05T08:38:22.446Z,33.80
2024-02-05T08:40:49.934Z,35.53
2024-02-05T08:43:17.410Z,34.15
2024-02-05T08:45:46.135Z,35.60
2024-02-05T08:48:14.699Z,33.67
2024-02-05T08:50:42.022Z,32.13
2024-02-05T08:53:09.964Z,33.08
2024-02-05T08:55:37.448Z,35.42
2024-02-05T08:58:05.192Z,37.30
2024-02-05T09:00:34.067Z,34.72
2024-02-05T09:03:07.022Z,32.00
2024-02-05T09:05:41.409Z,30.98
2024-02-05T09:08:14.111Z,27.60
2024-02-05T09:10:41.496Z,27.15
2024-02-05T09:13:09.120Z,27.30
2024-02-05T09:15:37.158Z,25.50
2024-02-05T09:18:04.648Z,23.80
2024-02-05T09:20:31.883Z,24.30
2024-02-05T09:23:00.490Z,27.63
2024-02-05T09:25:28.952Z,25.13
2024-02-05T09:27:56.331Z,22.50
2024-02-05T09:30:23.494Z,22.83
2024-02-05T09:32:51.139Z,25.52
2024-02-05T09:35:18.930Z,23.92
2024-02-05T09:37:46.210Z,23.52
2024-02-05T09:40:13.671Z,22.20
2024-02-05T09:42:41.516Z,23.40
2024-02-05T09:45:12.390Z,24.08
2024-02-05T09:47:42.893Z,24.98
2024-02-05T09:50:13.950Z,25.23
2024-02-05T09:52:44.208Z,23.52
2024-02-05T09:55:14.856Z,23.52
2024-02-05T09:57:44.291Z,23.90
2024-02-05T10:00:12.697Z,20.60
2024-02-05T10:02:40.613Z,21.10
2024-02-05T10:05:12.496Z,18.77
2024-02-05T10:07:42.421Z,18.73
2024-02-05T10:10:11.323Z,16.42
2024-02-05T10:12:40.140Z,18.30
2024-02-05T10:15:08.821Z,16.75
2024-02-05T10:17:36.260Z,16.25
2024-02-05T10:20:05.007Z,15.13
2024-02-05T10:22:32.561Z,15.35
2024-02-05T10:25:03.811Z,14.40
2024-02-05T10:27:32.690Z,14.20
2024-02-05T10:30:03.377Z,12.35
2024-02-05T10:32:34.811Z,12.52
2024-02-05T10:35:02.438Z,12.10
2024-02-05T10:37:31.861Z,11.80
2024-02-05T10:40:07.368Z,12.60
2024-02-05T10:42:35.055Z,13.98
2024-02-05T10:45:05.891Z,13.65
2024-02-05T10:47:33.186Z,13.90
2024-02-05T10:50:00.781Z,14.50
2024-02-05T10:52:28.922Z,14.65
2024-02-05T10:54:59.312Z,13.70
2024-02-05T10:57:31.241Z,13.38
2024-02-05T10:59:59.365Z,12.85
2024-02-05T11:02:34.359Z,12.82
2024-02-05T11:05:03.532Z,13.25
2024-02-05T11:08:01.011Z,14.13
2024-02-05T11:10:31.161Z,13.68
2024-02-05T11:13:05.496Z,13.65
2024-02-05T11:15:37.394Z,14.25
2024-02-05T11:18:12.942Z,14.35
2024-02-05T11:20:44.899Z,14.63
2024-02-05T11:23:15.354Z,14.70
2024-02-05T11:25:42.990Z,14.52
2024-02-05T11:28:12.232Z,15.55
2024-02-05T11:30:47.194Z,14.50
2024-02-05T11:33:27.030Z,13.75
2024-02-05T11:35:58.492Z,15.45
2024-02-05T11:38:27.253Z,14.45
2024-02-05T11:40:54.972Z,14.25
2024-02-05T11:43:27.144Z,14.98
2024-02-05T11:45:55.836Z,14.60
2024-02-05T11:48:24.518Z,14.85
2024-02-05T11:50:52.152Z,14.13
2024-02-05T11:53:22.050Z,14.70
2024-02-05T11:55:49.372Z,15.32
2024-02-05T11:58:16.694Z,14.73
2024-02-05T12:00:44.335Z,15.00
2024-02-05T12:03:13.743Z,13.73
2024-02-05T12:05:41.166Z,14.00
2024-02-05T12:08:10.169Z,14.68
2024-02-05T12:10:38.380Z,18.65
2024-02-05T12:13:05.766Z,14.13
2024-02-05T12:15:37.975Z,13.50
2024-02-05T12:18:07.445Z,13.57
2024-02-05T12:20:35.173Z,14.50
2024-02-05T12:23:06.351Z,12.63
2024-02-05T12:25:41.287Z,12.70
2024-02-05T12:28:14.833Z,11.35
2024-02-05T12:30:42.553Z,10.60
2024-02-05T12:33:15.447Z,9.77
2024-02-05T12:35:42.815Z,9.00
2024-02-05T12:38:10.917Z,8.90
2024-02-05T12:40:39.398Z,7.90
2024-02-05T12:43:07.376Z,7.35
2024-02-05T12:45:35.163Z,8.75
2024-02-05T12:48:05.531Z,7.63
2024-02-05T12:50:34.340Z,8.15
2024-02-05T12:53:01.907Z,7.65
2024-02-05T12:55:29.622Z,6.93
2024-02-05T12:57:58.086Z,8.15
2024-02-05T13:00:25.684Z,7.93
2024-02-05T13:03:03.551Z,7.85
2024-02-05T13:05:32.001Z,7.50
2024-02-05T13:08:02.918Z,7.70
2024-02-05T13:10:30.633Z,7.22
2024-02-05T13:12:58.136Z,8.27
2024-02-05T13:15:26.916Z,8.65
2024-02-05T13:17:54.473Z,8.25
2024-02-05T13:20:22.395Z,7.35
2024-02-05T13:22:49.622Z,7.85
2024-02-05T13:25:20.346Z,8.93
2024-02-05T13:27:49.093Z,7.40
2024-02-05T13:30:16.916Z,7.85
2024-02-05T13:32:44.276Z,7.32
2024-02-05T13:35:11.768Z,7.80
2024-02-05T13:37:39.397Z,6.97
2024-02-05T13:40:08.859Z,6.97
2024-02-05T13:42:42.779Z,6.43
2024-02-05T13:45:12.319Z,6.43
2024-02-05T13:47:39.774Z,7.28
2024-02-05T13:50:09.438Z,6.93
2024-02-05T13:52:38.936Z,6.57
2024-02-05T13:55:07.683Z,7.07
2024-02-05T13:57:37.922Z,6.47
2024-02-05T14:00:07.771Z,6.90
2024-02-05T14:02:41.045Z,6.63
2024-02-05T14:05:09.349Z,7.82
2024-02-05T14:07:37.632Z,7.22
2024-02-05T14:10:05.782Z,7.35
2024-02-05T14:12:33.630Z,7.40
2024-02-05T14:15:04.348Z,7.15
2024-02-05T14:17:32.939Z,7.55
2024-02-05T14:20:00.489Z,8.88
2024-02-05T14:22:30.934Z,7.55
2024-02-05T14:24:58.297Z,7.57
2024-02-05T14:27:25.611Z,6.95
2024-02-05T14:29:52.853Z,6.85
2024-02-05T14:32:20.271Z,7.28
2024-02-05T14:34:49.363Z,8.75
2024-02-05T14:37:16.768Z,7.70
2024-02-05T14:39:46.475Z,8.40
2024-02-05T14:42:14.220Z,7.57
2024-02-05T14:44:41.475Z,7.50
2024-02-05T14:47:10.883Z,7.20
2024-02-05T14:49:38.690Z,8.25
2024-02-05T14:52:07.088Z,7.35
2024-02-05T14:54:34.693Z,8.15
2024-02-05T14:57:03.231Z,8.38
2024-02-05T14:59:32.026Z,8.05
2024-02-05T15:01:59.771Z,8.25
2024-02-05T15:04:28.024Z,7.88
2024-02-05T15:06:55.683Z,6.85
2024-02-05T15:09:22.995Z,7.88
2024-02-05T15:11:51.057Z,7.40
2024-02-05T15:14:18.427Z,8.35
2024-02-05T15:16:45.690Z,8.27
2024-02-05T15:19:14.308Z,7.43
2024-02-05T15:21:44.368Z,7.88
2024-02-05T15:24:13.587Z,8.50
2024-02-05T15:26:47.612Z,8.77
2024-02-05T15:29:16.199Z,23.42
2024-02-05T15:31:43.869Z,9.30
2024-02-05T15:34:15.658Z,13.27
2024-02-05T15:36:43.263Z,16.17
2024-02-05T15:39:12.072Z,24.45
2024-02-05T15:41:40.221Z,14.93
2024-02-05T15:44:07.941Z,10.55
2024-02-05T15:46:35.508Z,9.00
2024-02-05T15:49:02.992Z,9.63
2024-02-05T15:51:30.557Z,8.80
2024-02-05T15:53:57.743Z,8.50
2024-02-05T15:56:33.712Z,8.80
2024-02-05T15:59:07.675Z,9.98
2024-02-05T16:01:39.424Z,9.75
2024-02-05T16:04:11.002Z,9.63
2024-02-05T16:06:38.429Z,10.07
2024-02-05T16:09:07.629Z,10.73
2024-02-05T16:11:35.757Z,9.90
2024-02-05T16:14:07.733Z,10.07
2024-02-05T16:16:35.183Z,9.95
2024-02-05T16:19:05.022Z,9.77
2024-02-05T16:21:33.371Z,9.35
2024-02-05T16:24:02.039Z,8.90
2024-02-05T16:26:29.345Z,10.45
2024-02-05T16:28:56.576Z,15.52
2024-02-05T16:31:25.050Z,13.13
2024-02-05T16:33:52.627Z,21.88
2024-02-05T16:36:20.020Z,14.00
2024-02-05T16:38:48.027Z,13.48
2024-02-05T16:41:15.318Z,13.68
2024-02-05T16:43:45.803Z,14.02
2024-02-05T16:46:14.023Z,13.02
2024-02-05T16:48:42.446Z,14.48
2024-02-05T16:51:11.378Z,13.20
2024-02-05T16:53:42.283Z,14.20
2024-02-05T16:56:10.821Z,12.77
2024-02-05T16:58:39.393Z,12.55
2024-02-05T17:01:07.660Z,12.23
2024-02-05T17:03:35.492Z,11.63
2024-02-05T17:06:03.531Z,11.68
2024-02-05T17:08:31.030Z,12.50
2024-02-05T17:10:58.777Z,12.48
2024-02-05T17:13:27.208Z,15.85
2024-02-05T17:15:54.617Z,17.67
2024-02-05T17:18:23.645Z,21.30
2024-02-05T17:20:50.946Z,18.27
2024-02-05T17:23:19.614Z,15.48
2024-02-05T17:25:48.002Z,17.23
2024-02-05T17:28:18.209Z,17.25
2024-02-05T17:30:47.842Z,14.85
2024-02-05T17:33:15.647Z,14.73
2024-02-05T17:35:44.556Z,16.30
2024-02-05T17:38:18.142Z,16.08
2024-02-05T17:40:46.982Z,17.55
2024-02-05T17:43:14.310Z,18.42
2024-02-05T17:45:46.600Z,17.90
2024-02-05T17:48:14.351Z,19.20
2024-02-05T17:50:41.756Z,18.75
2024-02-05T17:53:09.193Z,21.52
2024-02-05T17:55:39.752Z,20.92
2024-02-05T17:58:07.315Z,22.85
2024-02-05T18:00:35.534Z,20.30
2024-02-05T18:03:04.953Z,24.02
2024-02-05T18:05:32.318Z,25.83
2024-02-05T18:07:59.878Z,24.58
2024-02-05T18:10:27.658Z,23.52
2024-02-05T18:12:56.758Z,26.00
2024-02-05T18:15:24.152Z,25.63
2024-02-05T18:17:52.730Z,26.98
2024-02-05T18:20:20.352Z,28.58
2024-02-05T18:22:47.689Z,27.17
2024-02-05T18:25:17.483Z,26.25
2024-02-05T18:27:45.529Z,26.65
2024-02-05T18:30:13.054Z,27.45
2024-02-05T18:32:40.548Z,26.27
2024-02-05T18:35:08.491Z,26.38
2024-02-05T18:37:35.936Z,23.05
2024-02-05T18:40:04.807Z,22.02
2024-02-05T18:42:32.502Z,20.83
2024-02-05T18:45:00.654Z,20.92
2024-02-05T18:47:27.884Z,22.80
2024-02-05T18:49:57.566Z,21.00
2024-02-05T18:52:25.382Z,20.23
2024-02-05T18:54:52.697Z,23.17
2024-02-05T18:57:22.657Z,22.73
2024-02-05T18:59:51.762Z,26.27
2024-02-05T19:02:24.511Z,21.55
2024-02-05T19:04:53.635Z,21.33
2024-02-05T19:07:22.110Z,22.17
2024-02-05T19:09:49.492Z,23.35
2024-02-05T19:12:19.914Z,23.85
2024-02-05T19:14:48.142Z,21.50
2024-02-05T19:17:15.376Z,21.50
2024-02-05T19:19:42.931Z,23.58
2024-02-05T19:22:10.853Z,29.23
2024-02-05T19:24:38.770Z,21.63
2024-02-05T19:27:06.921Z,20.17
2024-02-05T19:29:34.430Z,19.15
2024-02-05T19:32:02.590Z,20.50
2024-02-05T19:34:30.942Z,18.38
2024-02-05T19:37:00.171Z,19.70
2024-02-05T19:39:27.803Z,17.98
2024-02-05T19:41:55.075Z,19.27
2024-02-05T19:44:22.901Z,21.83
2024-02-05T19:46:51.808Z,28.65
2024-02-05T19:49:19.973Z,24.38
2024-02-05T19:51:47.517Z,22.48
2024-02-05T19:54:15.108Z,22.17
2024-02-05T19:56:45.920Z,23.92
2024-02-05T19:59:13.602Z,23.45
2024-02-05T20:01:41.170Z,22.42
2024-02-05T20:04:08.795Z,21.00
2024-02-05T20:06:36.924Z,23.75
2024-02-05T20:09:07.719Z,20.45
2024-02-05T20:11:34.911Z,18.67
2024-02-05T20:14:02.303Z,18.05
2024-02-05T20:16:33.503Z,18.92
2024-02-05T20:19:02.100Z,20.20
2024-02-05T20:21:29.405Z,19.50
2024-02-05T20:24:02.550Z,20.58
2024-02-05T20:26:30.368Z,14.20
2024-02-05T20:28:58.724Z,20.10
2024-02-05T20:31:26.018Z,18.75
2024-02-05T20:33:54.669Z,17.63
2024-02-05T20:36:22.081Z,19.80
2024-02-05T20:38:49.429Z,19.13
2024-02-05T20:41:16.683Z,18.92
2024-02-05T20:43:46.915Z,30.90
2024-02-05T20:46:14.801Z,27.00
2024-02-05T20:48:42.316Z,27.65
2024-02-05T20:51:09.601Z,28.60
2024-02-05T20:53:36.811Z,29.58
2024-02-05T20:56:06.115Z,26.13
2024-02-05T20:58:33.390Z,20.65
2024-02-05T21:01:01.495Z,22.10
2024-02-05T21:03:29.991Z,19.77
2024-02-05T21:05:58.723Z,17.70
2024-02-05T21:08:28.775Z,18.38
2024-02-05T21:10:56.495Z,19.40
2024-02-05T21:13:24.854Z,18.65
2024-02-05T21:15:53.341Z,20.08
2024-02-05T21:18:21.091Z,21.52
2024-02-05T21:20:48.458Z,20.98
2024-02-05T21:23:16.494Z,20.13
2024-02-05T21:25:44.284Z,20.48
2024-02-05T21:28:32.797Z,19.35
2024-02-05T21:31:03.481Z,19.30
2024-02-05T21:33:35.536Z,19.05
2024-02-05T21:36:03.264Z,24.23
2024-02-05T21:38:30.514Z,20.75
2024-02-05T21:41:00.252Z,20.70
2024-02-05T21:43:28.598Z,20.45
2024-02-05T21:45:56.060Z,19.08
2024-02-05T21:48:24.265Z,20.17
2024-02-05T21:50:51.547Z,18.90
2024-02-05T21:53:18.840Z,18.45
2024-02-05T21:55:46.615Z,20.30
2024-02-05T21:58:13.809Z,17.98
2024-02-05T22:00:41.335Z,19.38
2024-02-05T22:03:08.663Z,20.58
2024-02-05T22:05:36.449Z,20.77
2024-02-05T22:08:04.867Z,21.38
2024-02-05T22:10:32.273Z,21.83
2024-02-05T22:12:59.574Z,19.15
2024-02-05T22:15:26.998Z,19.67
2024-02-05T22:17:54.354Z,20.40
2024-02-05T22:20:21.655Z,21.40
2024-02-05T22:22:49.738Z,20.38
2024-02-05T22:25:17.360Z,19.15
2024-02-05T22:27:46.015Z,16.65
2024-02-05T22:30:15.300Z,23.35
2024-02-05T22:32:42.931Z,20.92
2024-02-05T22:35:10.302Z,21.25
2024-02-05T22:37:37.587Z,17.20
2024-02-05T22:40:10.823Z,18.70
2024-02-05T22:42:38.937Z,15.80
2024-02-05T22:45:06.912Z,17.30
2024-02-05T22:47:34.184Z,16.95
2024-02-05T22:50:01.506Z,15.85
2024-02-05T22:52:31.583Z,16.65
2024-02-05T22:54:59.096Z,15.77
2024-02-05T22:57:26.430Z,15.40
2024-02-05T22:59:53.772Z,16.42
2024-02-05T23:02:22.002Z,14.60
2024-02-05T23:04:53.978Z,16.40
2024-02-05T23:07:22.716Z,15.27
2024-02-05T23:09:51.280Z,16.80
2024-02-05T23:12:19.101Z,15.15
2024-02-05T23:14:46.379Z,14.35
2024-02-05T23:17:14.242Z,13.88
2024-02-05T23:19:42.066Z,13.65
2024-02-05T23:22:09.347Z,14.25
2024-02-05T23:24:37.254Z,14.27
2024-02-05T23:27:05.218Z,14.00
2024-02-05T23:29:33.001Z,14.52
2024-02-05T23:32:01.377Z,13.90
2024-02-05T23:34:29.698Z,14.80
2024-02-05T23:36:57.034Z,14.82
2024-02-05T23:39:24.449Z,14.38
2024-02-05T23:41:52.046Z,14.88
2024-02-05T23:44:19.316Z,15.57
2024-02-05T23:46:46.521Z,14.68
2024-02-05T23:49:13.793Z,13.93
2024-02-05T23:51:41.171Z,15.32
2024-02-05T23:54:08.444Z,14.55
2024-02-05T23:56:38.881Z,14.55
2024-02-05T23:59:06.127Z,15.18
